sensor_id;sensor_type;location;lat;lon;timestamp;pressure;altitude;pressure_sealevel;temperature;humidity
44144;BME280;68165;51.920;4.492;2023-03-04T00:00:47;66883.66;;;9.25;70.23
44144;BME280;68165;51.920;4.492;2023-03-04T00:03:12;66885.88;;;9.27;70.52
44144;BME280;68165;51.920;4.492;2023-03-04T00:05:41;66887.19;;;9.24;69.96
44144;BME280;68165;51.920;4.492;2023-03-04T00:08:06;66881.81;;;9.21;69.87
44144;BME280;68165;51.920;4.492;2023-03-04T00:10:31;66877.50;;;9.20;70.22
44144;BME280;68165;51.920;4.492;2023-03-04T00:12:57;66882.75;;;9.20;70.31
44144;BME280;68165;51.920;4.492;2023-03-04T00:15:22;66885.69;;;9.25;70.13
44144;BME280;68165;51.920;4.492;2023-03-04T00:17:48;66883.47;;;9.23;69.89
44144;BME280;68165;51.920;4.492;2023-03-04T00:20:13;66881.44;;;9.23;69.70
44144;BME280;68165;51.920;4.492;2023-03-04T00:22:39;66885.13;;;9.24;69.64
44144;BME280;68165;51.920;4.492;2023-03-04T00:25:05;66886.25;;;9.25;69.64
44144;BME280;68165;51.920;4.492;2023-03-04T00:27:30;66880.69;;;9.20;69.71
44144;BME280;68165;51.920;4.492;2023-03-04T00:29:56;66875.84;;;9.18;69.87
44144;BME280;68165;51.920;4.492;2023-03-04T00:32:21;66875.84;;;9.18;70.50
44144;BME280;68165;51.920;4.492;2023-03-04T00:34:47;66873.06;;;9.16;70.20
44144;BME280;68165;51.920;4.492;2023-03-04T00:37:13;66874.75;;;9.17;70.59
44144;BME280;68165;51.920;4.492;2023-03-04T00:39:38;66882.59;;;9.17;70.37
44144;BME280;68165;51.920;4.492;2023-03-04T00:42:03;66873.06;;;9.16;70.48
44144;BME280;68165;51.920;4.492;2023-03-04T00:44:29;66873.06;;;9.16;70.55
44144;BME280;68165;51.920;4.492;2023-03-04T00:46:54;66874.75;;;9.17;70.74
44144;BME280;68165;51.920;4.492;2023-03-04T00:49:20;66877.34;;;9.17;70.75
44144;BME280;68165;51.920;4.492;2023-03-04T00:51:45;66881.63;;;9.19;70.79
44144;BME280;68165;51.920;4.492;2023-03-04T00:54:10;66869.16;;;9.12;70.93
44144;BME280;68165;51.920;4.492;2023-03-04T00:56:36;66871.38;;;9.14;70.88
44144;BME280;68165;51.920;4.492;2023-03-04T00:59:01;66873.28;;;9.11;71.21
44144;BME280;68165;51.920;4.492;2023-03-04T01:01:26;66873.63;;;9.16;71.00
44144;BME280;68165;51.920;4.492;2023-03-04T01:03:52;66874.75;;;9.17;71.00
44144;BME280;68165;51.920;4.492;2023-03-04T01:06:17;66872.88;;;9.13;71.14
44144;BME280;68165;51.920;4.492;2023-03-04T01:08:43;66878.44;;;9.18;71.20
44144;BME280;68165;51.920;4.492;2023-03-04T01:11:08;66873.06;;;9.16;70.98
44144;BME280;68165;51.920;4.492;2023-03-04T01:13:34;66876.97;;;9.19;71.17
44144;BME280;68165;51.920;4.492;2023-03-04T01:15:59;66871.38;;;9.14;71.64
44144;BME280;68165;51.920;4.492;2023-03-04T01:18:25;66866.94;;;9.10;71.56
44144;BME280;68165;51.920;4.492;2023-03-04T01:20:50;66866.38;;;9.10;71.56
44144;BME280;68165;51.920;4.492;2023-03-04T01:23:16;66861.75;;;9.03;71.65
44144;BME280;68165;51.920;4.492;2023-03-04T01:25:41;66870.84;;;9.14;71.75
44144;BME280;68165;51.920;4.492;2023-03-04T01:28:06;66852.44;;;8.97;71.99
44144;BME280;68165;51.920;4.492;2023-03-04T01:30:32;66863.59;;;9.07;71.84
44144;BME280;68165;51.920;4.492;2023-03-04T01:32:57;66867.88;;;9.09;71.94
44144;BME280;68165;51.920;4.492;2023-03-04T01:35:23;66861.94;;;9.06;71.79
44144;BME280;68165;51.920;4.492;2023-03-04T01:37:48;66850.22;;;8.95;71.51
44144;BME280;68165;51.920;4.492;2023-03-04T01:40:14;66855.44;;;8.95;71.62
44144;BME280;68165;51.920;4.492;2023-03-04T01:42:40;66867.53;;;9.04;71.03
44144;BME280;68165;51.920;4.492;2023-03-04T01:45:06;66861.75;;;9.03;70.79
44144;BME280;68165;51.920;4.492;2023-03-04T01:47:33;66847.44;;;8.92;70.68
44144;BME280;68165;51.920;4.492;2023-03-04T01:50:03;66856.56;;;8.96;70.42
44144;BME280;68165;51.920;4.492;2023-03-04T01:52:29;66845.03;;;8.88;70.18
44144;BME280;68165;51.920;4.492;2023-03-04T01:54:56;66843.94;;;8.87;70.22
44144;BME280;68165;51.920;4.492;2023-03-04T01:57:23;66849.47;;;8.99;70.26
44144;BME280;68165;51.920;4.492;2023-03-04T02:00:17;66864.16;;;9.08;70.34
44144;BME280;68165;51.920;4.492;2023-03-04T02:02:44;66858.03;;;9.02;69.97
44144;BME280;68165;51.920;4.492;2023-03-04T02:05:10;66848.16;;;8.95;70.22
44144;BME280;68165;51.920;4.492;2023-03-04T02:07:36;66853.56;;;8.98;69.99
44144;BME280;68165;51.920;4.492;2023-03-04T02:10:02;66852.44;;;8.97;70.41
44144;BME280;68165;51.920;4.492;2023-03-04T02:12:28;66860.25;;;9.04;70.09
44144;BME280;68165;51.920;4.492;2023-03-04T02:14:53;66860.81;;;9.05;70.27
44144;BME280;68165;51.920;4.492;2023-03-04T02:17:24;66871.78;;;9.12;70.20
44144;BME280;68165;51.920;4.492;2023-03-04T02:22:39;66869.56;;;9.10;70.28
44144;BME280;68165;51.920;4.492;2023-03-04T02:25:11;66866.75;;;9.08;70.41
44144;BME280;68165;51.920;4.492;2023-03-04T02:27:38;66861.19;;;9.02;70.15
44144;BME280;68165;51.920;4.492;2023-03-04T02:30:03;66858.03;;;9.02;70.25
44144;BME280;68165;51.920;4.492;2023-03-04T02:32:29;66857.13;;;8.96;70.66
44144;BME280;68165;51.920;4.492;2023-03-04T02:34:55;66846.88;;;8.92;70.91
44144;BME280;68165;51.920;4.492;2023-03-04T02:37:20;66857.31;;;8.99;71.28
44144;BME280;68165;51.920;4.492;2023-03-04T02:39:47;66856.75;;;8.98;71.39
44144;BME280;68165;51.920;4.492;2023-03-04T02:42:15;66861.38;;;9.05;71.10
44144;BME280;68165;51.920;4.492;2023-03-04T02:44:42;66848.38;;;8.91;71.30
44144;BME280;68165;51.920;4.492;2023-03-04T02:47:11;66860.81;;;9.05;71.23
44144;BME280;68165;51.920;4.492;2023-03-04T02:49:39;66859.13;;;9.03;71.09
44144;BME280;68165;51.920;4.492;2023-03-04T02:52:22;66866.94;;;9.10;71.19
44144;BME280;68165;51.920;4.492;2023-03-04T02:54:49;66851.34;;;8.96;70.98
44144;BME280;68165;51.920;4.492;2023-03-04T02:57:14;66861.75;;;9.03;70.97
44144;BME280;68165;51.920;4.492;2023-03-04T02:59:40;66847.44;;;8.92;70.84
44144;BME280;68165;51.920;4.492;2023-03-04T03:02:07;66851.72;;;8.94;71.35
44144;BME280;68165;51.920;4.492;2023-03-04T03:04:34;66848.56;;;8.93;71.46
44144;BME280;68165;51.920;4.492;2023-03-04T03:07:00;66848.38;;;8.91;70.79
44144;BME280;68165;51.920;4.492;2023-03-04T03:09:25;66849.66;;;8.94;70.59
44144;BME280;68165;51.920;4.492;2023-03-04T03:11:51;66835.00;;;8.79;71.07
44144;BME280;68165;51.920;4.492;2023-03-04T03:14:16;66848.00;;;8.93;70.71
44144;BME280;68165;51.920;4.492;2023-03-04T03:16:42;66840.19;;;8.86;70.68
44144;BME280;68165;51.920;4.492;2023-03-04T03:19:07;66849.50;;;8.92;70.51
44144;BME280;68165;51.920;4.492;2023-03-04T03:21:32;66853.94;;;8.96;70.68
44144;BME280;68165;51.920;4.492;2023-03-04T03:23:58;66846.72;;;8.89;71.03
44144;BME280;68165;51.920;4.492;2023-03-04T03:26:23;66849.31;;;8.89;70.59
44144;BME280;68165;51.920;4.492;2023-03-04T03:28:49;66852.13;;;8.92;70.71
44144;BME280;68165;51.920;4.492;2023-03-04T03:31:14;66842.59;;;8.90;70.54
44144;BME280;68165;51.920;4.492;2023-03-04T03:33:39;66837.25;;;8.81;70.72
44144;BME280;68165;51.920;4.492;2023-03-04T03:36:05;66844.66;;;8.90;70.84
44144;BME280;68165;51.920;4.492;2023-03-04T03:38:31;66842.25;;;8.85;71.25
44144;BME280;68165;51.920;4.492;2023-03-04T03:40:56;66841.69;;;8.85;71.27
44144;BME280;68165;51.920;4.492;2023-03-04T03:43:21;66829.06;;;8.76;71.38
44144;BME280;68165;51.920;4.492;2023-03-04T03:45:47;66842.63;;;8.83;71.26
44144;BME280;68165;51.920;4.492;2023-03-04T03:48:12;66840.03;;;8.83;71.03
44144;BME280;68165;51.920;4.492;2023-03-04T03:50:38;66841.31;;;8.87;70.93
44144;BME280;68165;51.920;4.492;2023-03-04T03:53:03;66838.91;;;8.82;71.20
44144;BME280;68165;51.920;4.492;2023-03-04T03:55:29;66834.63;;;8.81;71.06
44144;BME280;68165;51.920;4.492;2023-03-04T03:57:54;66837.41;;;8.83;71.07
44144;BME280;68165;51.920;4.492;2023-03-04T04:00:21;66840.03;;;8.83;70.80
44144;BME280;68165;51.920;4.492;2023-03-04T04:02:47;66837.25;;;8.81;70.90
44144;BME280;68165;51.920;4.492;2023-03-04T04:05:12;66824.03;;;8.71;70.74
44144;BME280;68165;51.920;4.492;2023-03-04T04:07:38;66835.72;;;8.82;70.73
44144;BME280;68165;51.920;4.492;2023-03-04T04:10:06;66834.84;;;8.76;70.97
44144;BME280;68165;51.920;4.492;2023-03-04T04:12:32;66838.91;;;8.82;70.85
44144;BME280;68165;51.920;4.492;2023-03-04T04:14:58;66841.53;;;8.82;70.60
44144;BME280;68165;51.920;4.492;2023-03-04T04:17:23;66839.66;;;8.85;70.73
44144;BME280;68165;51.920;4.492;2023-03-04T04:19:50;66838.91;;;8.82;70.72
44144;BME280;68165;51.920;4.492;2023-03-04T04:22:19;66830.56;;;8.75;71.29
44144;BME280;68165;51.920;4.492;2023-03-04T04:24:45;66837.25;;;8.81;71.43
44144;BME280;68165;51.920;4.492;2023-03-04T04:27:11;66834.63;;;8.81;71.25
44144;BME280;68165;51.920;4.492;2023-03-04T04:29:36;66829.44;;;8.74;71.18
44144;BME280;68165;51.920;4.492;2023-03-04T04:32:02;66834.28;;;8.76;71.39
44144;BME280;68165;51.920;4.492;2023-03-04T04:34:27;66829.44;;;8.74;70.97
44144;BME280;68165;51.920;4.492;2023-03-04T04:36:53;66828.34;;;8.73;70.85
44144;BME280;68165;51.920;4.492;2023-03-04T04:39:18;66833.19;;;8.75;71.62
44144;BME280;68165;51.920;4.492;2023-03-04T04:41:44;66828.72;;;8.71;72.06
44144;BME280;68165;51.920;4.492;2023-03-04T04:44:10;66828.72;;;8.71;72.62
44144;BME280;68165;51.920;4.492;2023-03-04T04:46:36;66817.91;;;8.66;72.94
44144;BME280;68165;51.920;4.492;2023-03-04T04:49:02;66806.78;;;8.55;73.75
44144;BME280;68165;51.920;4.492;2023-03-04T04:51:29;66809.78;;;8.53;75.02
44144;BME280;68165;51.920;4.492;2023-03-04T04:53:55;66801.59;;;8.48;75.96
44144;BME280;68165;51.920;4.492;2023-03-04T04:56:23;66794.91;;;8.42;76.74
44144;BME280;68165;51.920;4.492;2023-03-04T04:58:52;66800.09;;;8.49;76.87
44144;BME280;68165;51.920;4.492;2023-03-04T05:01:18;66810.13;;;8.58;76.54
44144;BME280;68165;51.920;4.492;2023-03-04T05:03:43;66810.13;;;8.58;76.42
44144;BME280;68165;51.920;4.492;2023-03-04T05:06:11;66807.91;;;8.56;76.56
44144;BME280;68165;51.920;4.492;2023-03-04T05:08:37;66811.44;;;8.55;76.66
44144;BME280;68165;51.920;4.492;2023-03-04T05:11:03;66813.84;;;8.59;75.54
44144;BME280;68165;51.920;4.492;2023-03-04T05:13:29;66814.25;;;8.57;75.50
44144;BME280;68165;51.920;4.492;2023-03-04T05:15:55;66807.72;;;8.54;74.67
44144;BME280;68165;51.920;4.492;2023-03-04T05:18:22;66819.81;;;8.63;73.75
44144;BME280;68165;51.920;4.492;2023-03-04T05:20:52;66815.72;;;8.64;73.81
44144;BME280;68165;51.920;4.492;2023-03-04T05:23:18;66809.75;;;8.60;73.55
44144;BME280;68165;51.920;4.492;2023-03-04T05:25:44;66821.66;;;8.67;73.19
44144;BME280;68165;51.920;4.492;2023-03-04T05:28:09;66821.28;;;8.69;72.59
44144;BME280;68165;51.920;4.492;2023-03-04T05:30:39;66829.09;;;8.69;73.17
44144;BME280;68165;51.920;4.492;2023-03-04T05:33:05;66814.59;;;8.63;72.96
44144;BME280;68165;51.920;4.492;2023-03-04T05:35:33;66807.72;;;8.54;73.76
44144;BME280;68165;51.920;4.492;2023-03-04T05:37:59;66799.38;;;8.46;74.15
44144;BME280;68165;51.920;4.492;2023-03-04T05:40:25;66789.91;;;8.38;75.14
44144;BME280;68165;51.920;4.492;2023-03-04T05:42:50;66791.03;;;8.39;75.87
44144;BME280;68165;51.920;4.492;2023-03-04T05:45:16;66784.69;;;8.38;76.32
44144;BME280;68165;51.920;4.492;2023-03-04T05:47:41;66794.75;;;8.40;76.88
44144;BME280;68165;51.920;4.492;2023-03-04T05:50:07;66782.84;;;8.34;77.24
44144;BME280;68165;51.920;4.492;2023-03-04T05:52:32;66788.78;;;8.37;77.77
44144;BME280;68165;51.920;4.492;2023-03-04T05:54:58;66791.59;;;8.39;78.46
44144;BME280;68165;51.920;4.492;2023-03-04T05:57:23;66793.09;;;8.38;78.19
44144;BME280;68165;51.920;4.492;2023-03-04T05:59:49;66792.31;;;8.42;78.45
44144;BME280;68165;51.920;4.492;2023-03-04T06:02:14;66804.06;;;8.46;78.34
44144;BME280;68165;51.920;4.492;2023-03-04T06:04:39;66805.50;;;8.52;78.26
44144;BME280;68165;51.920;4.492;2023-03-04T06:07:05;66807.91;;;8.56;78.29
44144;BME280;68165;51.920;4.492;2023-03-04T06:09:30;66807.50;;;8.58;78.33
44144;BME280;68165;51.920;4.492;2023-03-04T06:11:55;66809.56;;;8.58;78.31
44144;BME280;68165;51.920;4.492;2023-03-04T06:14:21;66812.19;;;8.58;78.13
44144;BME280;68165;51.920;4.492;2023-03-04T06:16:46;66814.59;;;8.63;78.10
44144;BME280;68165;51.920;4.492;2023-03-04T06:19:11;66803.25;;;8.57;78.15
44144;BME280;68165;51.920;4.492;2023-03-04T06:21:37;66815.53;;;8.61;78.02
44144;BME280;68165;51.920;4.492;2023-03-04T06:24:02;66820.94;;;8.64;78.06
44144;BME280;68165;51.920;4.492;2023-03-04T06:26:27;66816.59;;;8.69;77.68
44144;BME280;68165;51.920;4.492;2023-03-04T06:28:53;66822.03;;;8.65;77.67
44144;BME280;68165;51.920;4.492;2023-03-04T06:31:21;66811.25;;;8.59;78.20
44144;BME280;68165;51.920;4.492;2023-03-04T06:33:47;66809.41;;;8.55;78.82
44144;BME280;68165;51.920;4.492;2023-03-04T06:36:12;66794.53;;;8.44;79.71
44144;BME280;68165;51.920;4.492;2023-03-04T06:38:37;66787.13;;;8.35;80.72
44144;BME280;68165;51.920;4.492;2023-03-04T06:41:10;66780.63;;;8.32;82.47
44144;BME280;68165;51.920;4.492;2023-03-04T06:43:37;66770.03;;;8.22;83.01
44144;BME280;68165;51.920;4.492;2023-03-04T06:46:03;66771.53;;;8.21;84.09
44144;BME280;68165;51.920;4.492;2023-03-04T06:48:28;66779.31;;;8.28;84.01
44144;BME280;68165;51.920;4.492;2023-03-04T06:50:54;66784.50;;;8.35;83.90
44144;BME280;68165;51.920;4.492;2023-03-04T06:53:19;66785.28;;;8.31;84.71
44144;BME280;68165;51.920;4.492;2023-03-04T06:55:45;66784.72;;;8.31;85.56
44144;BME280;68165;51.920;4.492;2023-03-04T06:58:11;66780.41;;;8.29;85.67
44144;BME280;68165;51.920;4.492;2023-03-04T07:00:36;66780.06;;;8.31;85.96
44144;BME280;68165;51.920;4.492;2023-03-04T07:03:01;66783.19;;;8.39;85.57
44144;BME280;68165;51.920;4.492;2023-03-04T07:05:27;66795.09;;;8.45;85.56
44144;BME280;68165;51.920;4.492;2023-03-04T07:07:52;66802.72;;;8.49;85.65
44144;BME280;68165;51.920;4.492;2023-03-04T07:10:18;66807.16;;;8.53;85.63
44144;BME280;68165;51.920;4.492;2023-03-04T07:12:44;66801.59;;;8.48;85.79
44144;BME280;68165;51.920;4.492;2023-03-04T07:15:09;66817.19;;;8.63;85.45
44144;BME280;68165;51.920;4.492;2023-03-04T07:17:35;66819.81;;;8.63;85.99
44144;BME280;68165;51.920;4.492;2023-03-04T07:20:00;66822.38;;;8.70;85.60
44144;BME280;68165;51.920;4.492;2023-03-04T07:22:26;66825.72;;;8.73;85.23
44144;BME280;68165;51.920;4.492;2023-03-04T07:24:51;66845.03;;;8.88;85.23
44144;BME280;68165;51.920;4.492;2023-03-04T07:27:17;66853.00;;;8.97;84.61
44144;BME280;68165;51.920;4.492;2023-03-04T07:29:42;66849.09;;;8.94;84.29
44144;BME280;68165;51.920;4.492;2023-03-04T07:32:08;66840.91;;;8.89;84.19
44144;BME280;68165;51.920;4.492;2023-03-04T07:34:34;66868.81;;;9.07;83.71
44144;BME280;68165;51.920;4.492;2023-03-04T07:36:59;66865.81;;;9.09;83.99
44144;BME280;68165;51.920;4.492;2023-03-04T07:39:24;66871.06;;;9.09;83.70
44144;BME280;68165;51.920;4.492;2023-03-04T07:41:50;66853.78;;;8.93;84.14
44144;BME280;68165;51.920;4.492;2023-03-04T07:44:15;66835.19;;;8.81;85.04
44144;BME280;68165;51.920;4.492;2023-03-04T07:46:41;66814.03;;;8.62;86.03
44144;BME280;68165;51.920;4.492;2023-03-04T07:49:06;66810.34;;;8.54;87.38
44144;BME280;68165;51.920;4.492;2023-03-04T07:51:32;66797.16;;;8.44;88.49
44144;BME280;68165;51.920;4.492;2023-03-04T07:53:59;66805.34;;;8.49;89.03
44144;BME280;68165;51.920;4.492;2023-03-04T07:56:29;66793.59;;;8.46;89.64
44144;BME280;68165;51.920;4.492;2023-03-04T07:58:55;66796.03;;;8.43;90.33
44144;BME280;68165;51.920;4.492;2023-03-04T08:01:24;66820.72;;;8.68;90.28
44144;BME280;68165;51.920;4.492;2023-03-04T08:03:49;66850.22;;;8.95;89.11
44144;BME280;68165;51.920;4.492;2023-03-04T08:06:17;66869.72;;;9.13;88.20
44144;BME280;68165;51.920;4.492;2023-03-04T08:08:44;66887.56;;;9.29;87.27
44144;BME280;68165;51.920;4.492;2023-03-04T08:11:13;66903.53;;;9.41;86.64
44144;BME280;68165;51.920;4.492;2023-03-04T08:13:38;66908.00;;;9.45;85.82
44144;BME280;68165;51.920;4.492;2023-03-04T08:16:05;66909.66;;;9.47;85.52
44144;BME280;68165;51.920;4.492;2023-03-04T08:18:30;66885.88;;;9.27;87.12
44144;BME280;68165;51.920;4.492;2023-03-04T08:20:55;66865.09;;;9.06;88.22
44144;BME280;68165;51.920;4.492;2023-03-04T08:23:21;66876.97;;;9.19;88.61
44144;BME280;68165;51.920;4.492;2023-03-04T08:25:47;66898.34;;;9.34;88.37
44144;BME280;68165;51.920;4.492;2023-03-04T08:28:13;66902.03;;;9.42;88.03
44144;BME280;68165;51.920;4.492;2023-03-04T08:30:39;66918.56;;;9.55;87.64
44144;BME280;68165;51.920;4.492;2023-03-04T08:33:06;66944.63;;;9.76;87.04
44144;BME280;68165;51.920;4.492;2023-03-04T08:35:35;66973.59;;;10.02;86.26
44144;BME280;68165;51.920;4.492;2023-03-04T08:38:01;66998.50;;;10.30;85.06
44144;BME280;68165;51.920;4.492;2023-03-04T08:40:26;67017.44;;;10.47;84.06
44144;BME280;68165;51.920;4.492;2023-03-04T08:42:52;67037.53;;;10.65;83.00
44144;BME280;68165;51.920;4.492;2023-03-04T08:45:17;67054.25;;;10.80;81.97
44144;BME280;68165;51.920;4.492;2023-03-04T08:47:43;67080.16;;;10.99;80.75
44144;BME280;68165;51.920;4.492;2023-03-04T08:50:09;67127.19;;;11.44;78.83
44144;BME280;68165;51.920;4.492;2023-03-04T08:52:34;67168.72;;;11.84;76.61
44144;BME280;68165;51.920;4.492;2023-03-04T08:55:00;67193.09;;;12.04;74.93
44144;BME280;68165;51.920;4.492;2023-03-04T08:57:26;67198.69;;;12.09;73.57
44144;BME280;68165;51.920;4.492;2023-03-04T08:59:51;67175.97;;;11.91;73.02
44144;BME280;68165;51.920;4.492;2023-03-04T09:02:16;67139.81;;;11.60;74.04
44144;BME280;68165;51.920;4.492;2023-03-04T09:04:42;67096.69;;;11.19;76.37
44144;BME280;68165;51.920;4.492;2023-03-04T09:07:07;67040.88;;;10.68;80.16
44144;BME280;68165;51.920;4.492;2023-03-04T09:09:34;67018.00;;;10.47;82.67
44144;BME280;68165;51.920;4.492;2023-03-04T09:11:59;67003.88;;;10.32;84.67
44144;BME280;68165;51.920;4.492;2023-03-04T09:14:25;66996.44;;;10.30;86.51
44144;BME280;68165;51.920;4.492;2023-03-04T09:16:50;66979.53;;;10.12;87.88
44144;BME280;68165;51.920;4.492;2023-03-04T09:19:16;66976.53;;;10.07;89.22
44144;BME280;68165;51.920;4.492;2023-03-04T09:21:42;66979.53;;;10.12;90.22
44144;BME280;68165;51.920;4.492;2023-03-04T09:24:08;66986.22;;;10.18;90.81
44144;BME280;68165;51.920;4.492;2023-03-04T09:26:33;67018.56;;;10.48;90.04
44144;BME280;68165;51.920;4.492;2023-03-04T09:29:00;67033.06;;;10.61;89.05
44144;BME280;68165;51.920;4.492;2023-03-04T09:31:27;67067.66;;;10.92;88.46
44144;BME280;68165;51.920;4.492;2023-03-04T09:33:55;67103.75;;;11.23;86.76
44144;BME280;68165;51.920;4.492;2023-03-04T09:36:21;67136.88;;;11.55;85.39
44144;BME280;68165;51.920;4.492;2023-03-04T09:38:47;67165.19;;;11.78;83.26
44144;BME280;68165;51.920;4.492;2023-03-04T09:41:19;67182.66;;;11.97;82.12
44144;BME280;68165;51.920;4.492;2023-03-04T09:43:46;67188.81;;;12.02;81.04
44144;BME280;68165;51.920;4.492;2023-03-04T09:46:17;67196.06;;;12.09;80.48
44144;BME280;68165;51.920;4.492;2023-03-04T09:48:49;67161.44;;;11.77;81.40
44144;BME280;68165;51.920;4.492;2023-03-04T09:54:07;67100.00;;;11.22;86.37
44144;BME280;68165;51.920;4.492;2023-03-04T09:56:36;67060.25;;;10.83;88.32
44144;BME280;68165;51.920;4.492;2023-03-04T09:59:24;67033.47;;;10.59;90.74
44144;BME280;68165;51.920;4.492;2023-03-04T10:01:55;67003.69;;;10.37;91.67
44144;BME280;68165;51.920;4.492;2023-03-04T10:07:00;67081.03;;;11.04;91.72
44144;BME280;68165;51.920;4.492;2023-03-04T10:09:40;67154.72;;;11.71;89.33
44144;BME280;68165;51.920;4.492;2023-03-04T10:12:14;67223.66;;;12.29;86.36
44144;BME280;68165;51.920;4.492;2023-03-04T10:15:03;67237.94;;;12.47;84.62
44144;BME280;68165;51.920;4.492;2023-03-04T10:17:35;67200.16;;;12.15;84.37
44144;BME280;68165;51.920;4.492;2023-03-04T10:20:18;67149.16;;;11.66;85.70
44144;BME280;68165;51.920;4.492;2023-03-04T10:22:46;67099.84;;;11.19;86.88
44144;BME280;68165;51.920;4.492;2023-03-04T10:27:41;67054.25;;;10.80;89.69
44144;BME280;68165;51.920;4.492;2023-03-04T10:30:50;67066.38;;;10.89;90.88
44144;BME280;68165;51.920;4.492;2023-03-04T10:33:22;67050.75;;;10.75;91.46
44144;BME280;68165;51.920;4.492;2023-03-04T10:38:24;67040.88;;;10.68;92.78
44144;BME280;68165;51.920;4.492;2023-03-04T10:40:50;67015.59;;;10.43;94.58
44144;BME280;68165;51.920;4.492;2023-03-04T10:43:20;67011.16;;;10.39;96.28
44144;BME280;68165;51.920;4.492;2023-03-04T10:45:46;67023.81;;;10.48;96.55
44144;BME280;68165;51.920;4.492;2023-03-04T10:48:22;67052.03;;;10.78;97.06
44144;BME280;68165;51.920;4.492;2023-03-04T10:50:49;67093.50;;;11.18;95.34
44144;BME280;68165;51.920;4.492;2023-03-04T10:53:27;67116.22;;;11.36;94.69
44144;BME280;68165;51.920;4.492;2023-03-04T10:55:53;67159.63;;;11.73;93.35
44144;BME280;68165;51.920;4.492;2023-03-04T10:58:19;67184.19;;;11.96;91.53
44144;BME280;68165;51.920;4.492;2023-03-04T11:00:58;67205.41;;;12.15;90.34
44144;BME280;68165;51.920;4.492;2023-03-04T11:03:35;67207.25;;;12.19;89.05
44144;BME280;68165;51.920;4.492;2023-03-04T11:08:38;67243.78;;;12.47;85.49
44144;BME280;68165;51.920;4.492;2023-03-04T11:11:20;67254.16;;;12.61;84.15
44144;BME280;68165;51.920;4.492;2023-03-04T11:13:54;67246.72;;;12.52;83.29
44144;BME280;68165;51.920;4.492;2023-03-04T11:16:27;67259.75;;;12.66;82.38
44144;BME280;68165;51.920;4.492;2023-03-04T11:18:59;67254.31;;;12.64;81.57
44144;BME280;68165;51.920;4.492;2023-03-04T11:21:30;67272.03;;;12.78;81.67
44144;BME280;68165;51.920;4.492;2023-03-04T11:24:00;67312.31;;;13.14;79.22
44144;BME280;68165;51.920;4.492;2023-03-04T11:26:30;67346.81;;;13.43;76.72
44144;BME280;68165;51.920;4.492;2023-03-04T11:37:29;67186.41;;;11.98;81.17
44144;BME280;68165;51.920;4.492;2023-03-04T11:40:00;67145.78;;;11.63;84.67
44144;BME280;68165;51.920;4.492;2023-03-04T11:44:56;67083.66;;;11.04;89.41
44144;BME280;68165;51.920;4.492;2023-03-04T11:50:14;67059.84;;;10.85;93.26
44144;BME280;68165;51.920;4.492;2023-03-04T12:01:07;67169.66;;;11.82;87.77
44144;BME280;68165;51.920;4.492;2023-03-04T12:12:26;67245.94;;;12.56;80.15
44144;BME280;68165;51.920;4.492;2023-03-04T12:18:04;67254.72;;;12.62;76.75
44144;BME280;68165;51.920;4.492;2023-03-04T12:25:57;67232.13;;;12.46;76.51
44144;BME280;68165;51.920;4.492;2023-03-04T12:28:46;67190.88;;;12.02;78.96
44144;BME280;68165;51.920;4.492;2023-03-04T12:34:29;67110.97;;;11.36;88.31
44144;BME280;68165;51.920;4.492;2023-03-04T12:37:14;67076.03;;;11.00;92.12
44144;BME280;68165;51.920;4.492;2023-03-04T12:39:56;67051.47;;;10.78;95.37
44144;BME280;68165;51.920;4.492;2023-03-04T12:47:57;67165.91;;;11.81;94.32
44144;BME280;68165;51.920;4.492;2023-03-04T12:56:27;67154.72;;;11.71;94.52
44144;BME280;68165;51.920;4.492;2023-03-04T12:58:55;67131.25;;;11.50;95.46
44144;BME280;68165;51.920;4.492;2023-03-04T13:02:03;67122.34;;;11.42;96.96
44144;BME280;68165;51.920;4.492;2023-03-04T13:07:36;67090.91;;;11.11;98.47
44144;BME280;68165;51.920;4.492;2023-03-04T13:10:15;67061.34;;;10.84;99.37
44144;BME280;68165;51.920;4.492;2023-03-04T13:12:52;67039.75;;;10.67;100.00
44144;BME280;68165;51.920;4.492;2023-03-04T13:15:29;67020.78;;;10.50;100.00
44144;BME280;68165;51.920;4.492;2023-03-04T13:18:43;67021.91;;;10.51;100.00
44144;BME280;68165;51.920;4.492;2023-03-04T13:23:31;67071.56;;;10.96;98.48
44144;BME280;68165;51.920;4.492;2023-03-04T13:28:32;67079.78;;;11.01;96.62
44144;BME280;68165;51.920;4.492;2023-03-04T13:31:11;67087.75;;;11.11;96.59
44144;BME280;68165;51.920;4.492;2023-03-04T13:33:44;67110.78;;;11.34;96.25
44144;BME280;68165;51.920;4.492;2023-03-04T13:36:29;67152.72;;;11.65;96.13
44144;BME280;68165;51.920;4.492;2023-03-04T13:41:47;67174.53;;;11.84;94.47
44144;BME280;68165;51.920;4.492;2023-03-04T13:46:55;67255.69;;;12.60;90.97
44144;BME280;68165;51.920;4.492;2023-03-04T13:49:21;67260.13;;;12.64;88.72
44144;BME280;68165;51.920;4.492;2023-03-04T13:51:49;67262.94;;;12.67;86.78
44144;BME280;68165;51.920;4.492;2023-03-04T13:54:30;67251.94;;;12.59;84.13
44144;BME280;68165;51.920;4.492;2023-03-04T13:59:47;67276.50;;;12.82;82.94
44144;BME280;68165;51.920;4.492;2023-03-04T14:02:20;67262.38;;;12.66;82.71
44144;BME280;68165;51.920;4.492;2023-03-04T14:07:33;67229.59;;;12.39;83.48
44144;BME280;68165;51.920;4.492;2023-03-04T14:12:43;67198.69;;;12.09;85.03
44144;BME280;68165;51.920;4.492;2023-03-04T14:17:43;67170.78;;;11.83;85.72
44144;BME280;68165;51.920;4.492;2023-03-04T14:20:39;67171.50;;;11.86;85.39
44144;BME280;68165;51.920;4.492;2023-03-04T14:25:47;67152.47;;;11.69;84.65
44144;BME280;68165;51.920;4.492;2023-03-04T14:28:15;67151.94;;;11.69;84.53
44144;BME280;68165;51.920;4.492;2023-03-04T14:30:42;67147.28;;;11.62;83.93
44144;BME280;68165;51.920;4.492;2023-03-04T14:33:13;67135.91;;;11.57;83.56
44144;BME280;68165;51.920;4.492;2023-03-04T14:35:45;67135.19;;;11.54;83.65
44144;BME280;68165;51.920;4.492;2023-03-04T14:38:22;67126.09;;;11.43;84.07
44144;BME280;68165;51.920;4.492;2023-03-04T14:40:51;67120.84;;;11.43;83.96
44144;BME280;68165;51.920;4.492;2023-03-04T14:43:19;67138.19;;;11.52;83.77
44144;BME280;68165;51.920;4.492;2023-03-04T14:45:48;67158.47;;;11.72;83.54
44144;BME280;68165;51.920;4.492;2023-03-04T14:48:22;67178.59;;;11.91;82.86